Time;durP1;ratioP1;P1;durP2;ratioP2;P2;SDS_P1;SDS_P2;PMS_P1;PMS_P2;Temp;Humidity;BMP_temperature;BMP_pressure;BME280_temperature;BME280_humidity;BME280_pressure;Samples;Min_cycle;Max_cycle;Signal;HPM_P1;HPM_P2
2021/12/05 00:22:20;;;;;;;10.63;2.25;;;;;;;;;;5071350;28;20028;-65
2021/12/05 00:25:07;;;;;;;6.43;1.90;;;;;;;;;;5069932;28;20052;-64
2021/12/05 00:28:30;;;;;;;13.27;2.20;;;;;;;;;;5071376;28;20020;-67
2021/12/05 00:31:42;;;;;;;11.70;2.30;;;;;;;;;;5069834;28;20518;-66
2021/12/05 00:34:44;;;;;;;10.65;2.45;;;;;;;;;;5069974;28;20664;-64
2021/12/05 00:44:52;;;;;;;6.85;2.10;;;;;;;;;;4990070;28;20069;-64
2021/12/05 01:06:12;;;;;;;6.30;1.95;;;;;;;;;;5050148;28;20518;-72
2021/12/05 01:08:53;;;;;;;6.75;1.85;;;;;;;;;;5064328;28;20132;-67
2021/12/05 01:20:42;;;;;;;4.47;1.65;;;;;;;;;;4993854;28;20022;-65
2021/12/05 01:23:40;;;;;;;9.50;1.88;;;;;;;;;;4993788;28;20034;-73
2021/12/05 01:26:43;;;;;;;11.15;1.60;;;;;;;;;;4977268;28;20167;-68
2021/12/05 01:38:10;;;;;;;5.38;1.98;;;;;;;;;;4993723;28;20053;-69
2021/12/05 01:53:20;;;;;;;6.22;1.70;;;;;;;;;;4992624;28;20022;-73
2021/12/05 02:41:34;;;;;;;4.35;1.60;;;;;;;;;;4973441;28;20121;-64
2021/12/05 02:47:10;;;;;;;2.85;1.40;;;;;;;;;;4992506;28;20386;-63
2021/12/05 02:49:57;;;;;;;4.80;1.40;;;;;;;;;;4991571;28;20029;-62
2021/12/05 02:52:43;;;;;;;5.05;1.83;;;;;;;;;;4992463;28;20455;-62
2021/12/05 02:55:41;;;;;;;3.72;1.48;;;;;;;;;;4983936;28;20036;-68
2021/12/05 03:01:23;;;;;;;9.38;1.65;;;;;;;;;;4994522;28;20517;-73
2021/12/05 03:04:09;;;;;;;5.07;1.42;;;;;;;;;;4981980;28;20529;-71
2021/12/05 03:06:56;;;;;;;4.70;2.22;;;;;;;;;;4987318;28;20492;-71
2021/12/05 03:09:42;;;;;;;4.75;1.48;;;;;;;;;;4978669;28;20113;-73
2021/12/05 03:12:29;;;;;;;5.00;1.50;;;;;;;;;;4974512;28;20026;-72
2021/12/05 03:15:17;;;;;;;7.25;1.80;;;;;;;;;;4990758;28;20030;-65
2021/12/05 03:18:02;;;;;;;6.80;1.33;;;;;;;;;;4980158;28;20056;-65
2021/12/05 03:20:48;;;;;;;4.15;1.40;;;;;;;;;;4994084;28;20065;-64
2021/12/05 03:23:34;;;;;;;3.88;1.58;;;;;;;;;;4989593;28;20030;-66
2021/12/05 03:26:22;;;;;;;4.35;1.60;;;;;;;;;;4966558;28;20030;-64
2021/12/05 03:29:08;;;;;;;5.30;1.50;;;;;;;;;;4995802;28;20053;-64
2021/12/05 03:31:56;;;;;;;4.35;1.45;;;;;;;;;;4994349;28;20074;-67
2021/12/05 03:34:41;;;;;;;11.45;2.33;;;;;;;;;;4981744;28;20018;-66
2021/12/05 03:37:27;;;;;;;7.65;3.15;;;;;;;;;;4974680;28;20034;-64
2021/12/05 03:40:13;;;;;;;5.47;1.80;;;;;;;;;;4990669;28;20019;-64
2021/12/05 03:42:59;;;;;;;4.35;1.70;;;;;;;;;;5002886;28;20033;-63
2021/12/05 03:45:47;;;;;;;6.22;1.80;;;;;;;;;;4995914;28;20026;-63
2021/12/05 03:48:35;;;;;;;4.80;1.80;;;;;;;;;;4995075;28;20069;-65
2021/12/05 03:51:22;;;;;;;4.60;1.30;;;;;;;;;;4996371;28;20030;-75
2021/12/05 03:54:07;;;;;;;5.20;1.60;;;;;;;;;;4995023;28;20026;-65
2021/12/05 03:56:53;;;;;;;8.00;1.73;;;;;;;;;;5005693;28;20068;-64
2021/12/05 03:59:38;;;;;;;3.78;1.42;;;;;;;;;;4977275;28;20497;-64
2021/12/05 04:02:23;;;;;;;9.35;2.90;;;;;;;;;;4980622;28;20362;-66
2021/12/05 04:05:09;;;;;;;4.97;1.95;;;;;;;;;;4996130;28;20431;-68
2021/12/05 04:07:54;;;;;;;7.28;1.98;;;;;;;;;;4995298;28;20022;-64
2021/12/05 04:10:41;;;;;;;4.45;1.80;;;;;;;;;;4996619;28;20545;-63
2021/12/05 04:13:27;;;;;;;3.97;1.70;;;;;;;;;;4988726;28;20414;-63
2021/12/05 04:16:14;;;;;;;7.75;1.98;;;;;;;;;;4988314;28;20041;-62
2021/12/05 04:19:00;;;;;;;6.20;2.05;;;;;;;;;;4995466;28;20041;-62
2021/12/05 04:21:45;;;;;;;6.45;1.60;;;;;;;;;;4996472;28;20487;-65
2021/12/05 04:24:31;;;;;;;3.92;1.80;;;;;;;;;;4995377;28;20552;-62
2021/12/05 04:27:16;;;;;;;7.55;2.03;;;;;;;;;;4995732;28;20014;-71
2021/12/05 04:30:02;;;;;;;5.53;2.03;;;;;;;;;;4996139;28;20030;-66
2021/12/05 04:32:48;;;;;;;7.10;1.80;;;;;;;;;;4994722;28;20021;-65
2021/12/05 04:35:34;;;;;;;7.10;1.90;;;;;;;;;;4993504;28;20061;-68
2021/12/05 04:38:19;;;;;;;4.95;1.40;;;;;;;;;;5052805;28;20503;-66
2021/12/05 04:41:05;;;;;;;6.30;1.67;;;;;;;;;;4961831;28;20053;-67
2021/12/05 04:43:51;;;;;;;6.40;2.40;;;;;;;;;;4989019;28;20497;-66
2021/12/05 04:46:36;;;;;;;7.85;2.20;;;;;;;;;;4961454;28;20168;-65
2021/12/05 04:49:21;;;;;;;3.47;1.58;;;;;;;;;;4963280;28;20033;-70
2021/12/05 04:52:07;;;;;;;5.00;1.60;;;;;;;;;;4993198;28;20030;-69
2021/12/05 04:54:53;;;;;;;4.75;1.75;;;;;;;;;;5050049;28;20476;-70
2021/12/05 04:57:39;;;;;;;5.40;1.90;;;;;;;;;;4994541;28;20022;-69
2021/12/05 05:00:26;;;;;;;4.20;1.70;;;;;;;;;;4992870;28;20500;-69
2021/12/05 05:03:13;;;;;;;4.95;2.03;;;;;;;;;;4991431;28;20040;-70
2021/12/05 05:06:18;;;;;;;3.25;1.52;;;;;;;;;;4985267;28;20424;-75
2021/12/05 05:09:04;;;;;;;4.25;1.40;;;;;;;;;;4994218;28;20098;-62
2021/12/05 05:11:49;;;;;;;9.95;1.90;;;;;;;;;;4979286;28;20041;-62
2021/12/05 05:14:34;;;;;;;8.77;2.88;;;;;;;;;;4968120;28;20026;-63
2021/12/05 05:17:20;;;;;;;8.52;2.20;;;;;;;;;;5005612;28;20030;-65
2021/12/05 05:20:17;;;;;;;5.25;1.35;;;;;;;;;;4974577;28;20030;-62
2021/12/05 05:47:40;;;;;;;8.32;2.33;;;;;;;;;;4992174;28;20021;-67
2021/12/05 05:50:25;;;;;;;4.15;1.45;;;;;;;;;;4975516;28;20064;-66
2021/12/05 05:53:11;;;;;;;7.43;2.38;;;;;;;;;;4987098;28;20030;-65
2021/12/05 05:55:57;;;;;;;4.18;1.60;;;;;;;;;;4993475;28;20112;-65
2021/12/05 05:58:48;;;;;;;5.35;1.50;;;;;;;;;;4992488;28;20026;-73
2021/12/05 06:01:57;;;;;;;5.57;1.50;;;;;;;;;;4979936;28;20067;-72
2021/12/05 06:04:38;;;;;;;5.97;1.52;;;;;;;;;;4988120;28;20378;-64
2021/12/05 06:07:25;;;;;;;5.60;1.67;;;;;;;;;;4978539;28;20030;-64
2021/12/05 06:10:11;;;;;;;5.55;1.58;;;;;;;;;;4979313;28;20481;-65
2021/12/05 06:12:58;;;;;;;3.65;1.40;;;;;;;;;;4992133;28;20014;-66
2021/12/05 06:15:44;;;;;;;7.18;1.20;;;;;;;;;;4973854;28;20026;-65
2021/12/05 06:18:29;;;;;;;3.13;1.40;;;;;;;;;;4980898;28;20238;-65
2021/12/05 06:21:15;;;;;;;4.38;1.60;;;;;;;;;;4991353;28;20029;-74
2021/12/05 06:24:00;;;;;;;4.43;1.30;;;;;;;;;;4983169;28;20053;-76
2021/12/05 06:26:45;;;;;;;4.70;1.52;;;;;;;;;;4993340;28;20056;-75
2021/12/05 06:29:37;;;;;;;6.10;1.65;;;;;;;;;;4991704;28;20037;-76
2021/12/05 06:41:36;;;;;;;4.40;1.20;;;;;;;;;;4992704;28;20480;-69
2021/12/05 06:47:27;;;;;;;4.47;1.45;;;;;;;;;;4992884;28;20038;-69
2021/12/05 06:50:13;;;;;;;7.45;2.20;;;;;;;;;;4991039;28;20447;-68
2021/12/05 06:52:58;;;;;;;5.25;1.50;;;;;;;;;;4992625;28;20030;-71
2021/12/05 06:55:43;;;;;;;5.55;1.90;;;;;;;;;;4971677;28;20117;-64
2021/12/05 06:58:29;;;;;;;5.18;1.50;;;;;;;;;;4976567;28;20051;-66
2021/12/05 07:01:15;;;;;;;6.97;1.90;;;;;;;;;;4991610;28;20044;-65
2021/12/05 07:04:13;;;;;;;5.35;1.73;;;;;;;;;;4990972;28;20496;-65
2021/12/05 07:06:59;;;;;;;4.60;1.92;;;;;;;;;;4986727;28;20075;-68
2021/12/05 07:09:44;;;;;;;4.47;1.63;;;;;;;;;;4974118;28;20026;-64
2021/12/05 07:13:10;;;;;;;5.57;1.70;;;;;;;;;;4992516;28;20167;-71
2021/12/05 07:42:09;;;;;;;5.60;1.52;;;;;;;;;;4993224;28;20025;-63
2021/12/05 07:44:57;;;;;;;2.67;1.38;;;;;;;;;;4992112;28;20074;-63
2021/12/05 07:47:49;;;;;;;2.75;1.30;;;;;;;;;;4990756;28;20022;-62
2021/12/05 07:50:45;;;;;;;6.75;1.92;;;;;;;;;;4992069;28;20034;-72
2021/12/05 07:53:38;;;;;;;3.65;1.40;;;;;;;;;;4977460;28;20684;-71
2021/12/05 08:14:39;;;;;;;4.25;1.83;;;;;;;;;;4982002;28;20238;-68
2021/12/05 08:17:24;;;;;;;6.88;1.92;;;;;;;;;;4976785;28;20037;-70
2021/12/05 08:20:11;;;;;;;4.13;1.60;;;;;;;;;;4975361;28;20094;-71
2021/12/05 08:22:58;;;;;;;3.92;1.67;;;;;;;;;;4989185;28;20546;-70
2021/12/05 08:25:49;;;;;;;5.80;1.83;;;;;;;;;;4980672;28;20044;-69
2021/12/05 08:31:39;;;;;;;7.70;2.10;;;;;;;;;;4994549;28;20105;-66
2021/12/05 08:34:53;;;;;;;3.63;1.70;;;;;;;;;;4979955;28;20445;-65
2021/12/05 08:38:37;;;;;;;5.03;1.92;;;;;;;;;;5003400;28;20038;-65
2021/12/05 08:41:35;;;;;;;6.60;2.50;;;;;;;;;;4975233;28;20026;-65
2021/12/05 09:50:58;;;;;;;3.70;1.33;;;;;;;;;;4973729;28;20034;-65
2021/12/05 10:10:26;;;;;;;10.75;3.45;;;;;;;;;;4993094;28;20022;-63
2021/12/05 10:13:19;;;;;;;3.83;1.67;;;;;;;;;;4990632;28;20034;-66
2021/12/05 10:34:03;;;;;;;2.47;1.23;;;;;;;;;;5060050;28;20110;-63
2021/12/05 10:37:04;;;;;;;2.95;0.90;;;;;;;;;;5069038;28;20035;-70
2021/12/05 10:40:05;;;;;;;4.10;1.30;;;;;;;;;;5047478;28;20036;-62
2021/12/05 10:42:52;;;;;;;3.97;1.05;;;;;;;;;;5048686;28;20036;-65
2021/12/05 10:45:39;;;;;;;4.97;1.45;;;;;;;;;;5068585;28;20029;-63
2021/12/05 10:48:26;;;;;;;3.78;1.50;;;;;;;;;;5067829;28;20100;-62
2021/12/05 10:51:13;;;;;;;4.38;1.45;;;;;;;;;;5068948;28;20414;-63
2021/12/05 10:54:07;;;;;;;2.53;1.30;;;;;;;;;;5067681;28;20489;-74
2021/12/05 10:56:56;;;;;;;1.73;1.08;;;;;;;;;;5068789;28;20028;-64
2021/12/05 10:59:41;;;;;;;3.72;1.52;;;;;;;;;;5067029;28;20619;-66
2021/12/05 11:02:30;;;;;;;2.80;1.35;;;;;;;;;;5068812;28;20028;-65
2021/12/05 11:05:31;;;;;;;3.67;1.20;;;;;;;;;;5067120;28;20056;-66
2021/12/05 11:08:29;;;;;;;3.13;1.50;;;;;;;;;;5068711;28;20039;-66
2021/12/05 11:11:16;;;;;;;6.35;1.83;;;;;;;;;;5048130;28;20491;-66
2021/12/05 11:14:03;;;;;;;6.45;2.80;;;;;;;;;;5048169;28;20025;-68
2021/12/05 11:16:48;;;;;;;4.05;1.50;;;;;;;;;;5048587;28;20044;-67
2021/12/05 11:19:47;;;;;;;5.00;1.60;;;;;;;;;;4962526;28;20043;-66
2021/12/05 11:22:34;;;;;;;3.55;2.22;;;;;;;;;;4967715;28;20050;-64
2021/12/05 11:25:27;;;;;;;3.42;2.03;;;;;;;;;;4962058;28;20103;-68
2021/12/05 11:28:16;;;;;;;4.40;1.88;;;;;;;;;;4967025;28;20023;-67
2021/12/05 11:31:02;;;;;;;2.60;1.20;;;;;;;;;;4965531;28;20064;-75
2021/12/05 11:33:49;;;;;;;3.22;1.50;;;;;;;;;;4966930;28;20054;-73
2021/12/05 11:36:36;;;;;;;4.03;1.83;;;;;;;;;;4966313;28;20038;-69
2021/12/05 11:39:23;;;;;;;7.43;1.65;;;;;;;;;;4970211;28;20035;-70
2021/12/05 11:42:17;;;;;;;4.93;1.90;;;;;;;;;;4952377;28;20039;-73
2021/12/05 11:45:04;;;;;;;3.10;1.40;;;;;;;;;;4940350;28;20036;-70
2021/12/05 11:47:51;;;;;;;5.00;1.55;;;;;;;;;;4950925;29;20829;-68
2021/12/05 11:50:37;;;;;;;4.43;1.45;;;;;;;;;;4938298;28;20033;-65
2021/12/05 11:53:43;;;;;;;2.90;1.70;;;;;;;;;;4970007;28;20492;-73
2021/12/05 11:56:29;;;;;;;3.22;1.35;;;;;;;;;;4968682;28;20374;-74
2021/12/05 11:59:17;;;;;;;3.63;1.30;;;;;;;;;;4970017;28;20377;-74
2021/12/05 12:02:02;;;;;;;3.83;1.38;;;;;;;;;;4968625;28;20092;-76
2021/12/05 12:04:53;;;;;;;2.97;1.40;;;;;;;;;;4969530;28;20489;-74
2021/12/05 12:07:38;;;;;;;4.18;1.65;;;;;;;;;;4943069;28;20081;-68
2021/12/05 12:10:32;;;;;;;5.10;1.83;;;;;;;;;;4950528;29;20035;-74
2021/12/05 12:13:19;;;;;;;2.83;1.60;;;;;;;;;;4964442;28;20058;-70
2021/12/05 12:16:08;;;;;;;3.67;1.77;;;;;;;;;;4950601;29;20085;-69
2021/12/05 12:18:53;;;;;;;3.78;1.52;;;;;;;;;;5022169;28;20090;-70
2021/12/05 12:21:42;;;;;;;4.25;1.75;;;;;;;;;;5070399;28;20387;-69
2021/12/05 12:24:27;;;;;;;2.57;1.30;;;;;;;;;;5055739;28;20104;-70
2021/12/05 12:27:13;;;;;;;3.22;1.42;;;;;;;;;;5070114;28;20025;-70
2021/12/05 12:29:59;;;;;;;5.00;1.83;;;;;;;;;;5070954;28;20029;-65
2021/12/05 12:32:45;;;;;;;3.13;1.23;;;;;;;;;;5079953;28;20025;-63
2021/12/05 12:35:33;;;;;;;2.88;1.35;;;;;;;;;;5065320;28;20074;-64
2021/12/05 12:38:23;;;;;;;5.53;1.58;;;;;;;;;;5051198;28;20057;-64
2021/12/05 12:41:13;;;;;;;3.03;1.20;;;;;;;;;;5069688;28;20033;-64
2021/12/05 12:44:01;;;;;;;4.35;1.30;;;;;;;;;;5065907;28;20036;-65
2021/12/05 12:46:54;;;;;;;2.80;1.00;;;;;;;;;;5057266;28;20025;-69
2021/12/05 12:49:40;;;;;;;1.58;0.80;;;;;;;;;;5069111;28;20125;-71
2021/12/05 12:52:25;;;;;;;2.10;1.00;;;;;;;;;;5070810;28;20185;-71
2021/12/05 12:55:11;;;;;;;1.38;0.80;;;;;;;;;;5054772;28;20337;-68
2021/12/05 12:57:56;;;;;;;2.70;1.40;;;;;;;;;;5061014;28;20071;-66
2021/12/05 13:00:43;;;;;;;1.85;0.88;;;;;;;;;;5069949;28;20383;-68
2021/12/05 13:04:04;;;;;;;2.47;0.98;;;;;;;;;;5065811;28;20024;-62
2021/12/05 13:10:09;;;;;;;1.58;0.80;;;;;;;;;;5068427;28;20032;-63
2021/12/05 13:12:57;;;;;;;0.70;0.70;;;;;;;;;;5057793;28;20032;-62
2021/12/05 13:15:45;;;;;;;1.42;0.80;;;;;;;;;;5066013;28;20032;-60
2021/12/05 13:18:33;;;;;;;2.28;1.30;;;;;;;;;;5054143;28;20108;-60
2021/12/05 13:21:31;;;;;;;1.10;0.80;;;;;;;;;;5069448;28;20471;-72
2021/12/05 13:24:25;;;;;;;2.75;0.88;;;;;;;;;;5067604;28;20550;-65
2021/12/05 13:27:25;;;;;;;4.75;1.58;;;;;;;;;;5069084;28;20466;-67
2021/12/05 13:30:10;;;;;;;2.80;1.00;;;;;;;;;;5068273;28;20048;-66
2021/12/05 13:33:14;;;;;;;2.15;1.00;;;;;;;;;;5068990;28;20115;-65
2021/12/05 13:36:19;;;;;;;3.13;1.20;;;;;;;;;;5068690;28;20040;-66
2021/12/05 13:39:23;;;;;;;1.85;1.20;;;;;;;;;;5054846;28;20020;-74
2021/12/05 13:42:16;;;;;;;6.38;1.40;;;;;;;;;;5061321;28;20101;-62
2021/12/05 13:45:04;;;;;;;1.77;1.13;;;;;;;;;;5067318;28;20536;-66
2021/12/05 13:47:58;;;;;;;1.67;1.20;;;;;;;;;;5069267;28;20036;-66
2021/12/05 13:50:49;;;;;;;1.55;1.00;;;;;;;;;;5053747;28;20032;-63
2021/12/05 13:53:53;;;;;;;2.63;1.30;;;;;;;;;;5068781;28;20088;-63
2021/12/05 13:56:38;;;;;;;2.08;0.95;;;;;;;;;;5062940;28;20475;-67
2021/12/05 13:59:27;;;;;;;4.47;1.55;;;;;;;;;;5040054;28;20115;-68
2021/12/05 14:02:14;;;;;;;3.17;1.45;;;;;;;;;;5068021;28;20047;-73
2021/12/05 14:05:19;;;;;;;3.00;1.65;;;;;;;;;;5067808;28;20494;-71
2021/12/05 14:08:08;;;;;;;4.03;1.50;;;;;;;;;;5082019;28;20444;-72
2021/12/05 14:10:53;;;;;;;7.93;2.53;;;;;;;;;;5037503;28;20598;-69
2021/12/05 14:13:38;;;;;;;3.80;1.60;;;;;;;;;;5053390;28;20322;-74
2021/12/05 14:16:34;;;;;;;2.75;1.52;;;;;;;;;;5049128;28;20698;-67
2021/12/05 14:19:21;;;;;;;5.57;1.30;;;;;;;;;;5053474;28;20049;-65
2021/12/05 14:22:08;;;;;;;5.85;1.65;;;;;;;;;;5055664;28;20108;-63
2021/12/05 14:24:54;;;;;;;7.95;2.80;;;;;;;;;;5059127;28;20044;-62
2021/12/05 14:27:41;;;;;;;10.10;4.22;;;;;;;;;;5066048;28;20533;-62
2021/12/05 14:30:29;;;;;;;3.28;1.50;;;;;;;;;;5068203;28;20467;-64
2021/12/05 14:33:14;;;;;;;3.85;1.70;;;;;;;;;;5066977;28;20043;-63
2021/12/05 14:36:01;;;;;;;5.47;2.55;;;;;;;;;;5067811;28;20063;-66
2021/12/05 14:38:46;;;;;;;3.45;1.85;;;;;;;;;;5067259;28;20448;-72
2021/12/05 14:41:32;;;;;;;5.82;2.05;;;;;;;;;;5067464;28;20353;-73
2021/12/05 14:44:18;;;;;;;3.97;2.10;;;;;;;;;;5065880;28;20068;-71
2021/12/05 14:47:05;;;;;;;3.85;2.00;;;;;;;;;;5067656;28;20028;-72
2021/12/05 14:50:10;;;;;;;2.65;1.30;;;;;;;;;;5061479;28;20029;-69
2021/12/05 14:52:55;;;;;;;2.85;1.60;;;;;;;;;;5059327;28;20036;-72
2021/12/05 14:55:41;;;;;;;3.35;1.88;;;;;;;;;;5058261;28;20032;-64
2021/12/05 14:58:30;;;;;;;3.70;2.10;;;;;;;;;;5060889;28;20640;-63
2021/12/05 15:01:19;;;;;;;3.40;1.75;;;;;;;;;;5054107;28;20035;-66
2021/12/05 15:04:06;;;;;;;5.95;2.53;;;;;;;;;;5067024;28;20064;-64
2021/12/05 15:06:51;;;;;;;4.32;2.00;;;;;;;;;;5058813;28;20020;-65
2021/12/05 15:09:43;;;;;;;3.38;1.88;;;;;;;;;;5063691;28;20214;-66
2021/12/05 15:12:33;;;;;;;4.60;1.85;;;;;;;;;;5053861;28;20037;-66
2021/12/05 15:15:18;;;;;;;4.72;1.70;;;;;;;;;;5072645;28;20430;-70
2021/12/05 15:18:04;;;;;;;13.13;1.88;;;;;;;;;;5070237;28;20079;-70
2021/12/05 15:20:49;;;;;;;3.20;1.98;;;;;;;;;;5073503;28;20459;-72
2021/12/05 15:23:40;;;;;;;27.73;13.32;;;;;;;;;;5065020;28;20025;-72
2021/12/05 15:26:30;;;;;;;14.60;4.57;;;;;;;;;;5071524;28;20059;-73
2021/12/05 15:29:16;;;;;;;8.43;3.05;;;;;;;;;;5075149;28;20040;-70
2021/12/05 15:32:01;;;;;;;8.43;3.17;;;;;;;;;;5074400;28;20580;-63
2021/12/05 15:34:54;;;;;;;4.00;1.63;;;;;;;;;;5072752;28;20604;-65
2021/12/05 15:38:05;;;;;;;2.40;1.70;;;;;;;;;;5074727;28;20036;-62
2021/12/05 15:40:54;;;;;;;4.47;1.90;;;;;;;;;;5065947;28;20028;-63
2021/12/05 15:43:41;;;;;;;5.53;2.05;;;;;;;;;;5073377;28;20509;-62
2021/12/05 15:46:29;;;;;;;5.65;2.15;;;;;;;;;;5068051;28;20037;-64
2021/12/05 15:49:14;;;;;;;4.85;2.30;;;;;;;;;;5072986;28;20467;-69
2021/12/05 15:52:00;;;;;;;5.25;2.25;;;;;;;;;;5071744;28;20040;-67
2021/12/05 15:54:46;;;;;;;4.78;2.33;;;;;;;;;;5071770;28;20124;-66
2021/12/05 15:57:33;;;;;;;6.25;2.70;;;;;;;;;;5073037;28;20394;-68
2021/12/05 16:00:23;;;;;;;5.90;3.20;;;;;;;;;;5073511;28;20365;-67
2021/12/05 16:03:13;;;;;;;3.97;2.20;;;;;;;;;;5057135;28;20476;-69
2021/12/05 16:05:59;;;;;;;4.78;1.83;;;;;;;;;;5065674;28;20040;-67
2021/12/05 16:08:46;;;;;;;5.03;1.85;;;;;;;;;;5060144;28;20029;-70
2021/12/05 16:11:31;;;;;;;6.22;3.08;;;;;;;;;;5073048;28;20039;-64
2021/12/05 16:14:29;;;;;;;6.45;2.90;;;;;;;;;;5073874;28;20116;-63
2021/12/05 16:17:15;;;;;;;5.78;2.70;;;;;;;;;;5055440;28;20025;-63
2021/12/05 16:20:06;;;;;;;6.30;2.85;;;;;;;;;;4987516;28;20026;-67
2021/12/05 16:23:06;;;;;;;29.75;11.80;;;;;;;;;;4990152;28;20026;-61
2021/12/05 16:26:03;;;;;;;14.60;5.47;;;;;;;;;;4976674;28;20410;-67
2021/12/05 16:28:50;;;;;;;8.25;3.97;;;;;;;;;;4987897;28;20109;-63
2021/12/05 16:31:37;;;;;;;10.60;4.20;;;;;;;;;;4978051;28;20488;-60
2021/12/05 16:34:24;;;;;;;8.77;2.63;;;;;;;;;;4978690;28;20038;-62
2021/12/05 16:37:10;;;;;;;6.60;3.15;;;;;;;;;;4992943;28;20026;-61
2021/12/05 16:39:55;;;;;;;4.70;2.38;;;;;;;;;;4989203;28;20029;-63
2021/12/05 16:42:40;;;;;;;5.82;2.40;;;;;;;;;;4989461;28;20146;-62
2021/12/05 16:45:33;;;;;;;4.78;2.25;;;;;;;;;;4986435;28;20485;-74
2021/12/05 16:48:18;;;;;;;5.43;2.22;;;;;;;;;;4990231;28;20029;-65
2021/12/05 16:51:14;;;;;;;5.65;2.47;;;;;;;;;;4993688;28;20391;-70
2021/12/05 16:54:03;;;;;;;4.43;2.50;;;;;;;;;;4992957;28;20065;-67
2021/12/05 16:57:10;;;;;;;7.15;2.90;;;;;;;;;;4990524;28;20026;-69
2021/12/05 16:59:57;;;;;;;5.97;2.65;;;;;;;;;;4990547;28;20033;-70
2021/12/05 17:02:51;;;;;;;6.63;2.60;;;;;;;;;;4978070;28;20388;-68
2021/12/05 17:05:38;;;;;;;6.40;3.30;;;;;;;;;;4989701;28;20038;-64
2021/12/05 17:08:24;;;;;;;5.22;2.72;;;;;;;;;;4992710;28;20026;-63
2021/12/05 17:11:10;;;;;;;5.32;2.72;;;;;;;;;;4988076;28;20036;-63
2021/12/05 17:13:55;;;;;;;13.18;6.45;;;;;;;;;;4988362;28;20553;-64
2021/12/05 17:16:41;;;;;;;17.35;7.50;;;;;;;;;;4980119;28;20029;-67
2021/12/05 17:19:29;;;;;;;8.68;3.70;;;;;;;;;;4975944;28;20102;-67
2021/12/05 17:22:19;;;;;;;7.15;3.50;;;;;;;;;;4992579;28;20355;-61
2021/12/05 17:25:05;;;;;;;7.63;3.70;;;;;;;;;;4983524;28;20443;-63
2021/12/05 17:27:50;;;;;;;6.40;3.17;;;;;;;;;;4991518;28;20033;-65
2021/12/05 17:30:35;;;;;;;7.57;3.35;;;;;;;;;;4991618;28;20499;-64
2021/12/05 17:33:40;;;;;;;6.40;3.45;;;;;;;;;;4985778;28;20059;-63
2021/12/05 17:36:40;;;;;;;11.93;3.63;;;;;;;;;;4990006;28;20034;-66
2021/12/05 17:39:27;;;;;;;9.93;4.00;;;;;;;;;;4987419;28;20030;-65
2021/12/05 17:42:17;;;;;;;8.85;3.30;;;;;;;;;;4975077;28;20308;-66
2021/12/05 17:45:05;;;;;;;6.88;3.38;;;;;;;;;;4992141;28;20033;-66
2021/12/05 17:47:50;;;;;;;6.30;3.85;;;;;;;;;;4992644;28;20476;-68
2021/12/05 17:50:36;;;;;;;8.57;3.58;;;;;;;;;;4992447;28;20034;-66
2021/12/05 17:53:21;;;;;;;6.82;3.47;;;;;;;;;;4978713;28;20037;-64
2021/12/05 17:56:37;;;;;;;7.72;3.53;;;;;;;;;;4992557;28;20033;-65
2021/12/05 17:59:36;;;;;;;7.60;3.60;;;;;;;;;;5003226;28;20086;-73
2021/12/05 18:02:44;;;;;;;8.20;3.53;;;;;;;;;;4988359;28;20029;-61
2021/12/05 18:05:34;;;;;;;6.82;3.55;;;;;;;;;;4998517;28;20114;-64
2021/12/05 18:08:20;;;;;;;8.63;4.72;;;;;;;;;;4991207;28;20488;-62
2021/12/05 18:11:11;;;;;;;6.03;3.55;;;;;;;;;;4991966;28;20030;-63
2021/12/05 18:13:58;;;;;;;8.23;3.63;;;;;;;;;;4992552;28;20022;-63
2021/12/05 18:16:44;;;;;;;29.05;11.98;;;;;;;;;;4985024;28;20029;-69
2021/12/05 18:19:29;;;;;;;13.25;5.95;;;;;;;;;;4992412;28;20686;-65
2021/12/05 18:22:15;;;;;;;8.20;4.60;;;;;;;;;;4987101;28;20030;-66
2021/12/05 18:25:00;;;;;;;9.38;4.80;;;;;;;;;;4992419;28;20065;-65
2021/12/05 18:27:45;;;;;;;11.48;4.20;;;;;;;;;;4991640;28;20022;-67
2021/12/05 18:30:31;;;;;;;11.55;5.05;;;;;;;;;;4992102;28;20026;-71
2021/12/05 18:33:18;;;;;;;6.97;3.33;;;;;;;;;;5047516;28;20473;-67
2021/12/05 18:36:04;;;;;;;9.18;4.55;;;;;;;;;;4992540;28;20056;-67
2021/12/05 18:38:49;;;;;;;9.05;4.05;;;;;;;;;;4988431;28;20030;-68
2021/12/05 18:41:36;;;;;;;10.10;4.65;;;;;;;;;;4977407;28;20033;-69
2021/12/05 18:44:26;;;;;;;7.40;4.13;;;;;;;;;;5048988;28;20618;-69
2021/12/05 18:47:11;;;;;;;10.80;4.47;;;;;;;;;;4990075;28;20022;-70
2021/12/05 18:49:57;;;;;;;9.45;4.75;;;;;;;;;;4992552;28;20493;-70
2021/12/05 18:52:42;;;;;;;12.40;4.72;;;;;;;;;;4986234;28;20061;-66
2021/12/05 18:55:32;;;;;;;10.90;4.85;;;;;;;;;;4992676;28;20125;-69
2021/12/05 18:58:21;;;;;;;8.50;5.40;;;;;;;;;;4973156;28;20040;-69
2021/12/05 19:04:33;;;;;;;9.63;5.32;;;;;;;;;;4988125;28;20044;-69
2021/12/05 19:07:26;;;;;;;10.38;5.47;;;;;;;;;;4976931;28;20113;-70
2021/12/05 19:13:15;;;;;;;11.80;5.10;;;;;;;;;;4990355;28;20381;-65
2021/12/05 19:16:00;;;;;;;12.18;4.70;;;;;;;;;;4992010;28;20030;-71
2021/12/05 19:18:46;;;;;;;11.70;6.03;;;;;;;;;;4998646;28;20042;-71
2021/12/05 19:21:31;;;;;;;8.95;4.50;;;;;;;;;;4977436;28;20053;-69
2021/12/05 19:24:17;;;;;;;13.05;5.90;;;;;;;;;;4990050;28;20665;-69
2021/12/05 19:27:03;;;;;;;10.73;5.93;;;;;;;;;;4976784;28;20079;-68
2021/12/05 19:29:49;;;;;;;11.38;5.47;;;;;;;;;;4989345;28;20142;-67
2021/12/05 19:32:35;;;;;;;10.95;6.40;;;;;;;;;;4987067;28;20036;-63
2021/12/05 19:35:21;;;;;;;9.60;5.65;;;;;;;;;;4990740;28;20037;-63
2021/12/05 19:38:07;;;;;;;10.93;6.18;;;;;;;;;;4986814;28;20034;-64
2021/12/05 19:40:54;;;;;;;12.57;6.78;;;;;;;;;;4975393;28;20090;-67
2021/12/05 19:43:40;;;;;;;34.35;15.60;;;;;;;;;;4992439;28;20036;-63
2021/12/05 19:46:25;;;;;;;21.02;9.52;;;;;;;;;;4984353;28;20038;-66
2021/12/05 19:49:11;;;;;;;10.23;6.32;;;;;;;;;;4989339;28;20034;-69
2021/12/05 19:51:57;;;;;;;10.85;5.93;;;;;;;;;;4970781;28;20026;-63
2021/12/05 19:54:42;;;;;;;11.23;5.40;;;;;;;;;;4982408;28;20030;-62
2021/12/05 19:57:27;;;;;;;10.32;5.63;;;;;;;;;;4987018;28;20401;-63
2021/12/05 20:00:14;;;;;;;12.75;5.82;;;;;;;;;;4993539;28;20512;-62
2021/12/05 20:02:59;;;;;;;10.98;5.88;;;;;;;;;;4993340;28;20342;-67
2021/12/05 20:05:44;;;;;;;9.00;6.00;;;;;;;;;;4984021;28;20045;-69
2021/12/05 20:08:30;;;;;;;12.75;6.80;;;;;;;;;;4995064;28;20045;-71
2021/12/05 20:11:16;;;;;;;11.75;6.55;;;;;;;;;;4993256;28;20117;-66
2021/12/05 20:14:01;;;;;;;13.05;7.15;;;;;;;;;;5006584;28;20105;-73
2021/12/05 20:16:47;;;;;;;15.10;6.80;;;;;;;;;;4993552;28;20580;-68
2021/12/05 20:19:32;;;;;;;12.18;6.97;;;;;;;;;;4968838;28;20054;-72
2021/12/05 20:22:18;;;;;;;13.30;7.50;;;;;;;;;;4993725;28;20033;-68
2021/12/05 20:25:05;;;;;;;12.93;8.18;;;;;;;;;;4985075;28;20038;-70
2021/12/05 20:27:50;;;;;;;13.57;7.05;;;;;;;;;;4994585;28;20482;-68
2021/12/05 20:30:36;;;;;;;32.08;16.27;;;;;;;;;;4977395;28;20026;-70
2021/12/05 20:33:21;;;;;;;17.38;10.85;;;;;;;;;;5064740;28;20025;-69
2021/12/05 20:36:08;;;;;;;17.58;10.10;;;;;;;;;;4993086;28;20065;-72
2021/12/05 20:38:53;;;;;;;19.45;10.63;;;;;;;;;;4994304;28;20554;-70
2021/12/05 20:41:40;;;;;;;13.68;7.97;;;;;;;;;;4993296;28;20026;-69
2021/12/05 20:44:27;;;;;;;14.85;9.18;;;;;;;;;;4993719;28;20081;-67
2021/12/05 20:47:13;;;;;;;13.63;7.78;;;;;;;;;;4990263;28;20052;-69
2021/12/05 20:49:58;;;;;;;16.08;8.32;;;;;;;;;;4981040;28;20358;-70
2021/12/05 20:52:45;;;;;;;13.20;8.18;;;;;;;;;;5002088;28;20391;-66
2021/12/05 20:55:30;;;;;;;14.93;8.07;;;;;;;;;;4993851;28;20038;-73
2021/12/05 20:58:16;;;;;;;14.82;8.35;;;;;;;;;;4976190;28;20022;-72
2021/12/05 21:01:03;;;;;;;14.00;8.02;;;;;;;;;;4994305;28;20026;-69
2021/12/05 21:03:48;;;;;;;14.65;8.07;;;;;;;;;;4989373;28;20266;-69
2021/12/05 21:06:34;;;;;;;14.80;8.07;;;;;;;;;;4994258;28;20541;-74
2021/12/05 21:09:19;;;;;;;13.27;7.55;;;;;;;;;;4991956;28;20042;-75
2021/12/05 21:12:05;;;;;;;14.23;7.55;;;;;;;;;;4992550;28;20026;-77
2021/12/05 21:14:51;;;;;;;15.20;8.05;;;;;;;;;;4993596;28;20521;-76
2021/12/05 21:17:36;;;;;;;12.82;7.82;;;;;;;;;;4992534;28;20042;-78
2021/12/05 21:20:26;;;;;;;13.70;7.22;;;;;;;;;;4980768;28;20042;-70
2021/12/05 21:23:12;;;;;;;12.75;6.97;;;;;;;;;;4989252;28;20025;-66
2021/12/05 21:25:58;;;;;;;12.85;8.13;;;;;;;;;;4983153;28;20034;-66
2021/12/05 21:28:43;;;;;;;16.27;8.73;;;;;;;;;;4975261;28;20124;-64
2021/12/05 21:31:29;;;;;;;15.35;9.43;;;;;;;;;;4964202;28;20224;-69
2021/12/05 21:34:14;;;;;;;13.93;9.15;;;;;;;;;;4992223;28;20025;-64
2021/12/05 21:37:00;;;;;;;13.25;8.65;;;;;;;;;;4980234;28;20710;-63
2021/12/05 21:39:45;;;;;;;15.45;8.13;;;;;;;;;;4989817;28;20029;-70
2021/12/05 21:42:30;;;;;;;13.63;8.10;;;;;;;;;;4978791;28;20504;-77
2021/12/05 21:45:17;;;;;;;14.88;8.25;;;;;;;;;;4980187;28;20038;-75
2021/12/05 21:48:02;;;;;;;13.45;8.07;;;;;;;;;;4987784;28;20068;-79
2021/12/05 21:50:47;;;;;;;16.75;8.85;;;;;;;;;;4990588;28;20026;-74
2021/12/05 21:53:37;;;;;;;14.23;8.35;;;;;;;;;;4992956;28;20460;-75
2021/12/05 21:56:24;;;;;;;16.65;9.05;;;;;;;;;;4993668;28;20045;-68
2021/12/05 21:59:10;;;;;;;16.38;9.25;;;;;;;;;;4987782;28;20074;-72
2021/12/05 22:01:55;;;;;;;14.70;9.45;;;;;;;;;;4978076;28;20018;-67
2021/12/05 22:04:40;;;;;;;18.40;9.93;;;;;;;;;;4991957;28;20029;-68
2021/12/05 22:07:26;;;;;;;18.00;9.73;;;;;;;;;;4979417;28;20029;-68
2021/12/05 22:10:11;;;;;;;15.55;8.82;;;;;;;;;;4992165;28;20025;-67